createdAt,value
2022-11-29T00:00:23.089Z,26.53
2022-11-29T00:03:13.080Z,29.00
2022-11-29T00:05:43.810Z,26.97
2022-11-29T00:08:13.839Z,27.40
2022-11-29T00:10:44.497Z,26.80
2022-11-29T00:13:14.654Z,27.93
2022-11-29T00:15:52.832Z,27.07
2022-11-29T00:18:23.187Z,27.63
2022-11-29T00:20:56.579Z,26.23
2022-11-29T00:23:26.676Z,28.37
2022-11-29T00:25:57.042Z,27.47
2022-11-29T00:28:27.667Z,28.13
2022-11-29T00:31:00.807Z,27.33
2022-11-29T00:33:30.794Z,28.37
2022-11-29T00:36:04.391Z,28.43
2022-11-29T00:38:35.877Z,29.07
2022-11-29T00:41:06.918Z,27.80
2022-11-29T00:43:37.414Z,26.57
2022-11-29T00:46:11.358Z,27.90
2022-11-29T00:48:41.724Z,28.23
2022-11-29T00:51:12.215Z,28.03
2022-11-29T00:53:42.415Z,27.67
2022-11-29T00:56:13.315Z,26.13
2022-11-29T00:58:45.115Z,27.90
2022-11-29T01:01:19.896Z,27.13
2022-11-29T01:03:50.300Z,26.83
2022-11-29T01:06:21.449Z,28.37
2022-11-29T01:08:51.571Z,28.63
2022-11-29T01:11:24.410Z,27.77
2022-11-29T01:13:57.912Z,26.80
2022-11-29T01:16:32.978Z,26.30
2022-11-29T01:19:03.432Z,27.67
2022-11-29T01:21:33.989Z,27.73
2022-11-29T01:24:04.216Z,28.40
2022-11-29T01:26:35.578Z,26.97
2022-11-29T01:29:05.839Z,28.20
2022-11-29T01:31:38.992Z,27.57
2022-11-29T01:34:10.573Z,28.00
2022-11-29T01:36:41.806Z,28.47
2022-11-29T01:39:13.541Z,26.00
2022-11-29T01:41:44.081Z,27.10
2022-11-29T01:44:43.993Z,27.27
2022-11-29T01:47:17.289Z,26.90
2022-11-29T01:49:50.387Z,27.67
2022-11-29T01:52:23.620Z,26.97
2022-11-29T01:54:58.713Z,27.30
2022-11-29T01:57:29.884Z,28.93
2022-11-29T02:00:09.781Z,26.83
2022-11-29T02:02:45.725Z,28.30
2022-11-29T02:05:17.534Z,26.67
2022-11-29T02:07:51.033Z,27.63
2022-11-29T02:10:22.365Z,27.27
2022-11-29T02:13:02.467Z,26.80
2022-11-29T02:15:43.019Z,29.00
2022-11-29T02:18:20.569Z,26.87
2022-11-29T02:21:19.845Z,28.17
2022-11-29T02:24:08.657Z,27.67
2022-11-29T02:27:02.126Z,27.60
2022-11-29T02:29:59.617Z,29.50
2022-11-29T02:33:14.691Z,27.03
2022-11-29T02:36:13.118Z,27.47
2022-11-29T02:39:07.489Z,28.80
2022-11-29T02:41:49.309Z,27.70
2022-11-29T02:44:49.601Z,27.70
2022-11-29T02:47:31.607Z,28.87
2022-11-29T02:50:36.157Z,28.17
2022-11-29T02:53:12.219Z,29.27
2022-11-29T02:55:49.453Z,28.23
2022-11-29T02:58:27.944Z,28.33
2022-11-29T03:01:05.633Z,29.63
2022-11-29T03:03:41.358Z,29.07
2022-11-29T03:06:21.671Z,29.27
2022-11-29T03:08:59.945Z,29.80
2022-11-29T03:11:37.172Z,30.23
2022-11-29T03:14:18.054Z,30.73
2022-11-29T03:16:58.780Z,29.67
2022-11-29T03:19:49.845Z,32.23
2022-11-29T03:22:34.846Z,32.43
2022-11-29T03:25:10.733Z,29.77
2022-11-29T03:27:46.698Z,29.83
2022-11-29T03:30:21.736Z,28.30
2022-11-29T03:33:02.043Z,28.67
2022-11-29T03:35:40.325Z,28.40
2022-11-29T03:38:23.659Z,28.53
2022-11-29T03:41:02.577Z,28.77
2022-11-29T03:43:40.588Z,29.20
2022-11-29T03:46:14.964Z,29.83
2022-11-29T03:48:50.110Z,30.07
2022-11-29T03:51:26.054Z,30.10
2022-11-29T03:54:04.150Z,29.77
2022-11-29T03:56:37.305Z,29.07
2022-11-29T03:59:25.256Z,29.53
2022-11-29T04:02:31.071Z,29.63
2022-11-29T04:05:32.110Z,29.90
2022-11-29T04:08:31.688Z,30.50
2022-11-29T04:11:54.957Z,30.47
2022-11-29T04:14:36.726Z,29.63
2022-11-29T04:17:44.331Z,29.97
2022-11-29T04:20:48.512Z,30.17
2022-11-29T04:23:51.776Z,29.27
2022-11-29T04:26:51.175Z,30.10
2022-11-29T04:29:48.105Z,30.13
2022-11-29T04:32:49.032Z,30.23
2022-11-29T04:35:36.001Z,30.87
2022-11-29T04:38:27.140Z,29.37
2022-11-29T04:41:34.066Z,30.27
2022-11-29T04:44:25.607Z,29.07
2022-11-29T04:47:11.742Z,29.47
2022-11-29T04:50:10.253Z,28.03
2022-11-29T04:52:52.971Z,30.83
2022-11-29T04:55:38.296Z,30.17
2022-11-29T04:58:18.845Z,29.67
2022-11-29T05:01:03.682Z,29.10
2022-11-29T05:03:46.658Z,28.73
2022-11-29T05:06:26.169Z,28.67
2022-11-29T05:09:05.861Z,31.90
2022-11-29T05:11:50.535Z,30.07
2022-11-29T05:14:33.864Z,29.80
2022-11-29T05:17:27.303Z,30.93
2022-11-29T05:20:11.049Z,32.10
2022-11-29T05:22:49.061Z,30.53
2022-11-29T05:25:38.166Z,30.33
2022-11-29T05:28:16.953Z,30.33
2022-11-29T05:31:12.176Z,30.60
2022-11-29T05:34:17.773Z,29.70
2022-11-29T05:36:58.532Z,28.43
2022-11-29T05:39:48.773Z,30.40
2022-11-29T05:42:37.396Z,28.37
2022-11-29T05:45:17.291Z,30.43
2022-11-29T05:47:56.659Z,29.93
2022-11-29T05:50:35.878Z,30.17
2022-11-29T05:53:19.686Z,29.47
2022-11-29T05:56:02.183Z,29.53
2022-11-29T05:58:41.135Z,30.10
2022-11-29T06:01:25.620Z,30.10
2022-11-29T06:04:01.825Z,29.90
2022-11-29T06:06:41.957Z,33.23
2022-11-29T06:09:19.557Z,29.47
2022-11-29T06:11:53.303Z,30.33
2022-11-29T06:15:02.482Z,28.63
2022-11-29T06:17:49.852Z,28.93
2022-11-29T06:20:43.528Z,30.10
2022-11-29T06:23:33.358Z,29.50
2022-11-29T06:26:22.726Z,29.03
2022-11-29T06:29:05.313Z,30.40
2022-11-29T06:31:39.864Z,30.07
2022-11-29T06:34:18.677Z,29.43
2022-11-29T06:36:54.657Z,30.23
2022-11-29T06:39:28.264Z,30.13
2022-11-29T06:41:58.266Z,29.60
2022-11-29T06:44:29.204Z,31.13
2022-11-29T06:47:08.602Z,30.10
2022-11-29T06:49:45.668Z,29.40
2022-11-29T06:52:27.304Z,29.37
2022-11-29T06:55:13.312Z,28.53
2022-11-29T06:57:57.265Z,30.10
2022-11-29T07:00:29.903Z,29.10
2022-11-29T07:03:22.226Z,29.90
2022-11-29T07:05:53.351Z,29.90
2022-11-29T07:08:26.256Z,28.70
2022-11-29T07:11:00.504Z,29.33
2022-11-29T07:13:31.257Z,28.90
2022-11-29T07:16:09.034Z,28.33
2022-11-29T07:18:46.988Z,29.27
2022-11-29T07:21:28.745Z,29.93
2022-11-29T07:24:11.294Z,29.03
2022-11-29T07:26:59.317Z,29.17
2022-11-29T07:29:40.182Z,28.00
2022-11-29T07:32:18.684Z,28.77
2022-11-29T07:35:00.570Z,29.00
2022-11-29T07:37:38.347Z,29.43
2022-11-29T07:40:16.823Z,29.23
2022-11-29T07:43:03.930Z,29.87
2022-11-29T07:45:36.243Z,29.00
2022-11-29T07:48:07.637Z,28.90
2022-11-29T07:50:38.383Z,30.10
2022-11-29T07:53:08.681Z,27.80
2022-11-29T07:55:38.805Z,28.00
2022-11-29T07:58:13.809Z,27.73
2022-11-29T08:00:44.254Z,27.63
2022-11-29T08:03:14.680Z,28.00
2022-11-29T08:05:48.603Z,28.13
2022-11-29T08:08:19.140Z,27.60
2022-11-29T08:10:49.270Z,26.57
2022-11-29T08:13:23.519Z,27.30
2022-11-29T08:15:53.781Z,28.37
2022-11-29T08:18:23.984Z,28.00
2022-11-29T08:20:53.913Z,28.27
2022-11-29T08:23:24.305Z,26.67
2022-11-29T08:26:02.018Z,27.40
2022-11-29T08:28:34.953Z,27.17
2022-11-29T08:31:05.737Z,27.00
2022-11-29T08:33:37.787Z,28.43
2022-11-29T08:36:08.961Z,26.93
2022-11-29T08:38:39.339Z,27.97
2022-11-29T08:41:11.472Z,28.80
2022-11-29T08:43:44.578Z,26.93
2022-11-29T08:46:18.529Z,28.87
2022-11-29T08:48:49.560Z,27.27
2022-11-29T08:51:19.798Z,27.67
2022-11-29T08:53:51.645Z,28.23
2022-11-29T08:57:10.028Z,27.40
2022-11-29T08:59:15.200Z,27.90
2022-11-29T09:01:45.202Z,27.63
2022-11-29T09:04:17.114Z,26.73
2022-11-29T09:06:49.573Z,27.70
2022-11-29T09:09:20.532Z,30.70
2022-11-29T09:11:50.518Z,38.67
2022-11-29T09:14:23.543Z,35.70
2022-11-29T09:16:53.606Z,30.47
2022-11-29T09:19:23.918Z,27.67
2022-11-29T09:21:53.873Z,29.37
2022-11-29T09:24:24.140Z,27.43
2022-11-29T09:26:54.324Z,31.85
2022-11-29T09:29:27.226Z,29.17
2022-11-29T09:31:57.109Z,28.63
2022-11-29T09:34:27.410Z,28.10
2022-11-29T09:36:57.376Z,27.83
2022-11-29T09:39:27.680Z,28.27
2022-11-29T09:42:17.492Z,27.40
2022-11-29T09:45:04.159Z,27.87
2022-11-29T09:48:00.238Z,28.20
2022-11-29T09:50:36.352Z,28.97
2022-11-29T09:53:26.127Z,27.13
2022-11-29T09:56:07.388Z,26.80
2022-11-29T09:58:46.486Z,28.87
2022-11-29T10:01:23.429Z,27.93
2022-11-29T10:03:56.723Z,27.90
2022-11-29T10:06:32.013Z,27.60
2022-11-29T10:09:05.206Z,27.30
2022-11-29T10:11:39.695Z,28.47
2022-11-29T10:14:18.187Z,27.80
2022-11-29T10:16:57.266Z,27.33
2022-11-29T10:19:32.744Z,27.30
2022-11-29T10:22:07.948Z,27.80
2022-11-29T10:24:40.913Z,27.10
2022-11-29T10:27:17.212Z,26.53
2022-11-29T10:29:50.191Z,28.03
2022-11-29T10:32:23.637Z,27.37
2022-11-29T10:34:54.126Z,26.93
2022-11-29T10:37:26.412Z,28.00
2022-11-29T10:40:04.378Z,28.00
2022-11-29T10:42:47.466Z,27.53
2022-11-29T10:45:20.698Z,27.40
2022-11-29T10:47:56.492Z,27.17
2022-11-29T10:50:29.194Z,26.87
2022-11-29T10:53:06.584Z,27.87
2022-11-29T10:55:42.906Z,27.50
2022-11-29T10:58:23.374Z,27.50
2022-11-29T11:00:59.345Z,27.97
2022-11-29T11:03:40.066Z,28.27
2022-11-29T11:06:13.873Z,27.60
2022-11-29T11:08:46.450Z,28.10
2022-11-29T11:11:17.803Z,27.03
2022-11-29T11:14:00.834Z,28.47
2022-11-29T11:16:36.776Z,27.67
2022-11-29T11:19:32.717Z,27.70
2022-11-29T11:22:05.628Z,27.57
2022-11-29T11:24:39.986Z,28.77
2022-11-29T11:27:10.653Z,27.07
2022-11-29T11:29:45.314Z,28.17
2022-11-29T11:32:20.136Z,26.87
2022-11-29T11:34:57.677Z,28.37
2022-11-29T11:37:29.797Z,27.07
2022-11-29T11:40:02.464Z,27.67
2022-11-29T11:42:43.217Z,29.07
2022-11-29T11:45:29.089Z,27.77
2022-11-29T11:48:01.662Z,27.27
2022-11-29T11:50:36.712Z,27.90
2022-11-29T11:53:10.121Z,27.83
2022-11-29T11:55:44.737Z,28.90
2022-11-29T11:58:21.307Z,28.27
2022-11-29T12:01:09.403Z,29.50
2022-11-29T12:03:48.052Z,28.13
2022-11-29T12:06:46.619Z,27.57
2022-11-29T12:09:35.956Z,28.37
2022-11-29T12:12:15.205Z,27.73
2022-11-29T12:14:56.639Z,26.83
2022-11-29T12:17:34.431Z,28.70
2022-11-29T12:20:22.928Z,28.00
2022-11-29T12:23:09.427Z,28.03
2022-11-29T12:25:46.906Z,28.97
2022-11-29T12:28:20.791Z,27.57
2022-11-29T12:31:02.669Z,26.37
2022-11-29T12:33:45.858Z,27.97
2022-11-29T12:36:27.447Z,28.17
2022-11-29T12:39:17.704Z,30.60
2022-11-29T12:41:57.139Z,28.70
2022-11-29T12:44:49.282Z,28.87
2022-11-29T12:47:35.835Z,27.97
2022-11-29T12:50:22.287Z,28.83
2022-11-29T12:53:03.001Z,29.57
2022-11-29T12:55:49.557Z,29.40
2022-11-29T12:58:28.187Z,29.23
2022-11-29T13:01:10.111Z,28.37
2022-11-29T13:03:47.453Z,27.27
2022-11-29T13:06:29.651Z,28.93
2022-11-29T13:09:13.960Z,29.00
2022-11-29T13:11:53.651Z,29.00
2022-11-29T13:14:42.582Z,28.27
2022-11-29T13:17:27.464Z,28.93
2022-11-29T13:20:01.039Z,33.20
2022-11-29T13:22:39.757Z,29.03
2022-11-29T13:25:18.401Z,31.97
2022-11-29T13:27:58.443Z,32.67
2022-11-29T13:30:28.828Z,33.10
2022-11-29T13:33:05.818Z,32.07
2022-11-29T13:35:43.103Z,30.17
2022-11-29T13:38:21.374Z,30.40
2022-11-29T13:41:00.229Z,35.20
2022-11-29T13:43:41.912Z,30.17
2022-11-29T13:46:22.403Z,29.23
2022-11-29T13:48:54.560Z,29.13
2022-11-29T13:51:28.615Z,30.80
2022-11-29T13:54:02.255Z,29.03
2022-11-29T13:56:43.289Z,29.60
2022-11-29T13:59:24.068Z,30.67
2022-11-29T14:01:55.503Z,30.00
2022-11-29T14:04:30.242Z,29.57
2022-11-29T14:07:09.905Z,29.57
2022-11-29T14:09:48.576Z,29.67
2022-11-29T14:12:39.589Z,31.20
2022-11-29T14:15:28.404Z,31.63
2022-11-29T14:18:01.392Z,30.73
2022-11-29T14:21:02.198Z,31.63
2022-11-29T14:23:41.431Z,29.40
2022-11-29T14:26:32.954Z,30.40
2022-11-29T14:29:03.635Z,29.73
2022-11-29T14:31:56.212Z,29.10
2022-11-29T14:34:55.221Z,30.17
2022-11-29T14:37:50.272Z,30.53
2022-11-29T14:40:34.380Z,29.70
2022-11-29T14:43:06.124Z,30.07
2022-11-29T14:45:37.651Z,29.20
2022-11-29T14:48:28.311Z,32.73
2022-11-29T14:51:12.557Z,31.00
2022-11-29T14:53:44.849Z,30.50
2022-11-29T14:56:42.680Z,30.03
2022-11-29T14:59:43.347Z,29.53
2022-11-29T15:02:28.163Z,30.23
2022-11-29T15:05:14.539Z,30.83
2022-11-29T15:07:50.172Z,29.53
2022-11-29T15:10:23.948Z,30.10
2022-11-29T15:12:55.131Z,28.97
2022-11-29T15:15:56.824Z,31.10
2022-11-29T15:18:45.047Z,30.20
2022-11-29T15:21:32.948Z,30.67
2022-11-29T15:24:11.862Z,29.67
2022-11-29T15:26:56.649Z,30.27
2022-11-29T15:29:27.372Z,29.73
2022-11-29T15:32:00.226Z,31.20
2022-11-29T15:34:34.962Z,30.03
2022-11-29T15:37:08.517Z,29.90
2022-11-29T15:39:40.240Z,30.17
2022-11-29T15:42:15.528Z,29.40
2022-11-29T15:44:48.927Z,29.57
2022-11-29T15:47:28.038Z,30.97
2022-11-29T15:50:01.241Z,30.00
2022-11-29T15:52:39.962Z,30.27
2022-11-29T15:55:16.232Z,29.73
2022-11-29T15:57:51.213Z,31.13
2022-11-29T16:00:25.758Z,30.47
2022-11-29T16:03:01.306Z,32.47
2022-11-29T16:05:35.807Z,31.20
2022-11-29T16:08:17.008Z,33.13
2022-11-29T16:10:52.549Z,32.03
2022-11-29T16:13:35.818Z,32.87
2022-11-29T16:16:15.503Z,32.53
2022-11-29T16:18:49.319Z,31.77
2022-11-29T16:21:29.047Z,32.50
2022-11-29T16:24:17.634Z,34.17
2022-11-29T16:26:50.030Z,34.03
2022-11-29T16:29:26.156Z,33.57
2022-11-29T16:31:57.206Z,32.63
2022-11-29T16:34:34.005Z,34.03
2022-11-29T16:37:11.887Z,33.53
2022-11-29T16:39:50.519Z,33.93
2022-11-29T16:42:25.890Z,33.80
2022-11-29T16:45:03.066Z,33.67
2022-11-29T16:47:35.352Z,34.17
2022-11-29T16:50:18.386Z,34.07
2022-11-29T16:52:53.454Z,33.63
2022-11-29T16:55:29.720Z,34.20
2022-11-29T16:58:02.762Z,33.97
2022-11-29T17:00:35.230Z,34.13
2022-11-29T17:03:06.099Z,33.77
2022-11-29T17:05:41.639Z,34.47
2022-11-29T17:08:15.209Z,33.63
2022-11-29T17:10:48.237Z,31.97
2022-11-29T17:13:19.235Z,33.73
2022-11-29T17:15:49.572Z,32.60
2022-11-29T17:18:19.658Z,33.33
2022-11-29T17:20:50.110Z,33.30
2022-11-29T17:23:20.082Z,32.30
2022-11-29T17:26:02.158Z,32.73
2022-11-29T17:28:32.291Z,32.53
2022-11-29T17:31:10.064Z,56.13
2022-11-29T17:33:40.061Z,56.27
2022-11-29T17:36:12.857Z,35.17
2022-11-29T17:38:42.848Z,32.87
2022-11-29T17:41:18.580Z,33.27
2022-11-29T17:43:48.604Z,32.77
2022-11-29T17:46:21.347Z,31.47
2022-11-29T17:48:52.328Z,32.20
2022-11-29T17:51:54.499Z,32.43
2022-11-29T17:54:14.522Z,31.30
2022-11-29T17:56:47.456Z,31.23
2022-11-29T17:59:17.450Z,32.93
2022-11-29T18:01:48.937Z,31.67
2022-11-29T18:04:18.965Z,31.00
2022-11-29T18:06:50.161Z,33.00
2022-11-29T18:09:21.752Z,32.17
2022-11-29T18:11:54.774Z,32.77
2022-11-29T18:14:28.505Z,32.50
2022-11-29T18:16:59.559Z,34.00
2022-11-29T18:19:29.927Z,31.47
2022-11-29T18:22:00.417Z,32.27
2022-11-29T18:24:30.368Z,32.43
2022-11-29T18:27:03.667Z,32.83
2022-11-29T18:29:38.939Z,32.30
2022-11-29T18:32:09.565Z,87.83
2022-11-29T18:34:39.642Z,63.83
2022-11-29T18:37:16.020Z,34.40
2022-11-29T18:39:50.579Z,32.43
2022-11-29T18:42:23.729Z,31.27
2022-11-29T18:44:57.485Z,33.43
2022-11-29T18:47:32.886Z,33.27
2022-11-29T18:50:03.430Z,32.83
2022-11-29T18:52:39.313Z,33.60
2022-11-29T18:55:11.499Z,33.10
2022-11-29T18:57:44.685Z,32.43
2022-11-29T19:00:16.683Z,32.57
2022-11-29T19:02:49.461Z,32.73
2022-11-29T19:05:19.925Z,32.13
2022-11-29T19:07:50.503Z,33.73
2022-11-29T19:10:20.817Z,33.83
2022-11-29T19:12:53.754Z,32.37
2022-11-29T19:15:23.752Z,34.77
2022-11-29T19:17:54.089Z,33.90
2022-11-29T19:20:24.606Z,32.77
2022-11-29T19:23:00.292Z,35.00
2022-11-29T19:25:30.598Z,34.03
2022-11-29T19:28:05.850Z,33.57
2022-11-29T19:30:38.738Z,35.40
2022-11-29T19:33:14.900Z,34.80
2022-11-29T19:35:44.926Z,35.90
2022-11-29T19:38:15.403Z,88.57
2022-11-29T19:40:45.511Z,63.70
2022-11-29T19:43:18.741Z,40.60
2022-11-29T19:45:48.966Z,39.30
2022-11-29T19:48:19.287Z,37.23
2022-11-29T19:50:49.270Z,37.57
2022-11-29T19:53:19.607Z,35.80
2022-11-29T19:55:49.584Z,36.73
2022-11-29T19:58:23.282Z,36.57
2022-11-29T20:00:53.244Z,34.90
2022-11-29T20:03:23.951Z,35.70
2022-11-29T20:05:57.775Z,36.07
2022-11-29T20:08:28.190Z,35.03
2022-11-29T20:11:08.078Z,36.37
2022-11-29T20:13:41.175Z,36.40
2022-11-29T20:16:13.872Z,35.67
2022-11-29T20:18:50.644Z,37.03
2022-11-29T20:21:23.252Z,36.67
2022-11-29T20:23:57.747Z,34.83
2022-11-29T20:26:28.552Z,36.13
2022-11-29T20:29:02.059Z,35.57
2022-11-29T20:31:33.025Z,36.87
2022-11-29T20:34:03.626Z,36.13
2022-11-29T20:36:44.909Z,35.70
2022-11-29T20:39:26.550Z,37.10
2022-11-29T20:42:14.644Z,36.60
2022-11-29T20:44:56.235Z,36.40
2022-11-29T20:47:28.256Z,37.07
2022-11-29T20:49:59.124Z,37.40
2022-11-29T20:52:39.147Z,36.27
2022-11-29T20:55:10.576Z,37.37
2022-11-29T20:57:40.953Z,36.60
2022-11-29T21:00:15.949Z,38.00
2022-11-29T21:02:46.637Z,36.67
2022-11-29T21:05:17.098Z,37.77
2022-11-29T21:07:47.316Z,36.20
2022-11-29T21:10:18.281Z,37.37
2022-11-29T21:12:48.888Z,36.20
2022-11-29T21:15:23.293Z,36.30
2022-11-29T21:17:54.450Z,35.77
2022-11-29T21:20:27.366Z,38.43
2022-11-29T21:23:04.529Z,37.57
2022-11-29T21:25:45.853Z,43.07
2022-11-29T21:28:17.662Z,35.73
2022-11-29T21:30:51.406Z,36.90
2022-11-29T21:33:21.883Z,37.37
2022-11-29T21:35:55.678Z,37.73
2022-11-29T21:38:27.590Z,37.97
2022-11-29T21:40:57.865Z,35.80
2022-11-29T21:43:57.859Z,38.20
2022-11-29T21:46:20.915Z,37.47
2022-11-29T21:48:51.964Z,38.57
2022-11-29T21:51:22.289Z,37.60
2022-11-29T21:53:52.346Z,37.67
2022-11-29T21:56:22.688Z,38.40
2022-11-29T21:58:52.735Z,37.90
2022-11-29T22:01:27.223Z,39.07
2022-11-29T22:03:57.264Z,37.77
2022-11-29T22:06:29.380Z,38.70
2022-11-29T22:09:00.027Z,37.57
2022-11-29T22:11:36.847Z,36.80
2022-11-29T22:14:18.340Z,38.47
2022-11-29T22:16:53.560Z,38.83
2022-11-29T22:19:25.201Z,38.53
2022-11-29T22:21:57.150Z,36.53
2022-11-29T22:24:29.005Z,38.27
2022-11-29T22:26:59.823Z,38.57
2022-11-29T22:29:30.213Z,36.93
2022-11-29T22:32:03.319Z,37.53
2022-11-29T22:34:33.275Z,38.77
2022-11-29T22:37:03.618Z,37.07
2022-11-29T22:39:33.603Z,38.33
2022-11-29T22:42:04.158Z,39.03
2022-11-29T22:44:35.117Z,37.30
2022-11-29T22:47:08.066Z,39.70
2022-11-29T22:49:38.379Z,37.63
2022-11-29T22:52:09.067Z,38.53
2022-11-29T22:54:39.147Z,38.93
2022-11-29T22:57:09.532Z,37.40
2022-11-29T22:59:39.463Z,38.77
2022-11-29T23:02:12.697Z,38.27
2022-11-29T23:04:43.414Z,39.53
2022-11-29T23:07:14.086Z,38.90
2022-11-29T23:09:44.777Z,38.73
2022-11-29T23:12:15.086Z,38.67
2022-11-29T23:14:45.518Z,39.73
2022-11-29T23:17:18.849Z,39.50
2022-11-29T23:19:48.935Z,39.20
2022-11-29T23:22:19.426Z,38.70
2022-11-29T23:24:49.411Z,40.43
2022-11-29T23:27:19.846Z,38.80
2022-11-29T23:29:49.964Z,39.27
2022-11-29T23:32:22.890Z,40.27
2022-11-29T23:34:52.952Z,40.87
2022-11-29T23:37:23.241Z,38.33
2022-11-29T23:39:53.280Z,39.30
2022-11-29T23:42:23.854Z,40.60
2022-11-29T23:44:53.958Z,39.93
2022-11-29T23:47:27.150Z,41.40
2022-11-29T23:49:57.405Z,41.77
2022-11-29T23:52:27.731Z,38.83
2022-11-29T23:54:57.969Z,38.87
2022-11-29T23:57:28.387Z,39.07
